Fairhope, AL

5:23 PM CDT on April 25, 2015 (GMT -0500)
Fairhope | | Change Station
CLOSE
Current Station
Airport
Location: Fairhope,
Elevation: 92 ft
Nearby Weather Stations
Active Advisory: Severe Thunderstorm Watch

Elev 92 ft 30.46 °N, 87.88 °W | Updated 2 hours ago

Rain
Rain
75 °F
Feels Like 75 °F
N
8
Wind Variable Wind from WSW

Today
High -- | Low -- °F
--% Chance of Precip.
Yesterday
High -- | Low -- °F
Precip. -- in
6:13 AM 7:25 PM
Waxing Crescent, 49% visible
Pressure 29.80 in
Visibility 4.0 miles
Clouds Mostly Cloudy 6000 ft
Overcast 8000 ft
Dew Point 73 °F
Humidity 94%
Rainfall 0.05 in
Snow Depth Not available.
UV 3 out of 12
Pollen 5.20 out of 12
Air Quality Not available.
Flu Activity No Activity
METAR KCQF 252015Z AUTO 24007KT 4SM +RA BKN060 OVC080 24/23 A2980 RMK AO2 P0004

More Conditions Fewer Conditions

Pressure 29.80 in
Visibility 4.0 miles
Clouds Mostly Cloudy 6000 ft
Overcast 8000 ft
Dew Point 73 °F
Humidity 94%
Rainfall 0.05 in
Snow Depth Not available.
UV 3 out of 12
Pollen 5.20 out of 12
Air Quality Not available.
Flu Activity No Activity
METAR KCQF 252015Z AUTO 24007KT 4SM +RA BKN060 OVC080 24/23 A2980 RMK AO2 P0004

More Conditions Fewer Conditions

10-Day Weather Forecast

Almanac

Astronomy

Apr. 25, 2015 Rise Set
Actual Time
Civil Twilight
Nautical Twilight
Astronomical Twilight
Moon
Length of Visible Light
Length of Day
Tomorrow will be .
, % of the Moon is Illuminated

Today's Extremes

State Highs State Lows

Community

WunderPhotos

Upload Photos

1,816,833 photos uploaded!

WunderBlogs® & News

Nearby

Air Quality

  Air Quality AQ Index Pollutant
Not available.

Snow Depth

Station Depth Elevation

Earthquake Activity

City Distance Mag. Time & Date
Minimum magnitude displayed is 2.5.

Coastal Water Temperatures

Place Temperature

Stations

Nearby Weather Stations

Station Location Temp. Windchill Dew Point Humidity Wind Precip. Elev Updated Type
                   
Severe Thunderstorm Watch
Statement as of 5:15 PM CDT on April 25, 2015


The National Weather Service has cancelled Severe Thunderstorm
Watch 113 for the following areas

In Alabama this cancels 6 counties

In south central Alabama

Butler Conecuh Covington
Crenshaw Escambia

In southwest Alabama

Baldwin

In Florida this cancels 3 counties

In northwest Florida

Escambia Okaloosa Santa Rosa

This includes the cities of... Andalusia... Atmore... Bay Minette...
Bellview... Brantley... Brent... Brewton... Crestview... Daphne...
Destin... East Brewton... Eglin AFB... Ensley... Evergreen...
Ferry Pass... Fort Walton Beach... Greenville... Gulf Breeze...
Gulf Shores... Luverne... Milton... Myrtle Grove... Niceville... Opp...
pace... Pensacola... Seminole... West Pensacola and Wright.